sensor_id;sensor_type;location;lat;lon;timestamp;pressure;altitude;pressure_sealevel;temperature;humidity
72395;BME280;60384;48.152;11.614;2023-04-28T00:02:17;95653.09;;;10.47;59.49
72395;BME280;60384;48.152;11.614;2023-04-28T00:05:18;95646.19;;;10.46;58.62
72395;BME280;60384;48.152;11.614;2023-04-28T00:08:21;95639.75;;;10.47;59.55
72395;BME280;60384;48.152;11.614;2023-04-28T00:11:26;95634.06;;;10.48;59.32
72395;BME280;60384;48.152;11.614;2023-04-28T00:14:27;95635.97;;;10.48;58.65
72395;BME280;60384;48.152;11.614;2023-04-28T00:17:29;95633.31;;;10.48;58.87
72395;BME280;60384;48.152;11.614;2023-04-28T00:20:30;95638.16;;;10.46;58.54
72395;BME280;60384;48.152;11.614;2023-04-28T00:23:33;95635.50;;;10.46;58.74
72395;BME280;60384;48.152;11.614;2023-04-28T00:26:35;95624.81;;;10.46;58.59
72395;BME280;60384;48.152;11.614;2023-04-28T00:29:37;95634.84;;;10.49;58.84
72395;BME280;60384;48.152;11.614;2023-04-28T00:32:38;95626.03;;;10.48;59.28
72395;BME280;60384;48.152;11.614;2023-04-28T00:35:40;95626.03;;;10.48;58.57
72395;BME280;60384;48.152;11.614;2023-04-28T00:38:43;95610.66;;;10.45;58.63
72395;BME280;60384;48.152;11.614;2023-04-28T00:41:45;95610.97;;;10.44;58.37
72395;BME280;60384;48.152;11.614;2023-04-28T00:44:49;95614.44;;;10.44;58.58
72395;BME280;60384;48.152;11.614;2023-04-28T00:47:50;95615.22;;;10.45;58.58
72395;BME280;60384;48.152;11.614;2023-04-28T00:50:52;95616.81;;;10.46;58.59
72395;BME280;60384;48.152;11.614;2023-04-28T00:53:55;95614.91;;;10.46;58.41
72395;BME280;60384;48.152;11.614;2023-04-28T00:56:57;95617.59;;;10.46;59.11
72395;BME280;60384;48.152;11.614;2023-04-28T00:59:59;95613.34;;;10.45;59.38
72395;BME280;60384;48.152;11.614;2023-04-28T01:03:00;95611.47;;;10.46;58.78
72395;BME280;60384;48.152;11.614;2023-04-28T01:06:06;95606.13;;;10.46;58.91
72395;BME280;60384;48.152;11.614;2023-04-28T01:09:10;95602.97;;;10.44;59.02
72395;BME280;60384;48.152;11.614;2023-04-28T01:12:12;95588.38;;;10.41;58.76
72395;BME280;60384;48.152;11.614;2023-04-28T01:15:20;95592.94;;;10.41;58.93
72395;BME280;60384;48.152;11.614;2023-04-28T01:18:24;95594.81;;;10.40;58.71
72395;BME280;60384;48.152;11.614;2023-04-28T01:21:27;95587.91;;;10.39;58.73
72395;BME280;60384;48.152;11.614;2023-04-28T01:24:32;95588.22;;;10.38;59.25
72395;BME280;60384;48.152;11.614;2023-04-28T01:27:37;95589.66;;;10.35;58.73
72395;BME280;60384;48.152;11.614;2023-04-28T01:30:39;95583.81;;;10.33;59.26
72395;BME280;60384;48.152;11.614;2023-04-28T01:33:41;95576.47;;;10.30;58.73
72395;BME280;60384;48.152;11.614;2023-04-28T01:36:42;95575.50;;;10.26;58.85
72395;BME280;60384;48.152;11.614;2023-04-28T01:39:45;95574.28;;;10.23;59.39
72395;BME280;60384;48.152;11.614;2023-04-28T01:42:47;95573.00;;;10.21;58.90
72395;BME280;60384;48.152;11.614;2023-04-28T01:45:49;95573.78;;;10.21;59.01
72395;BME280;60384;48.152;11.614;2023-04-28T01:48:50;95571.91;;;10.22;59.04
72395;BME280;60384;48.152;11.614;2023-04-28T01:51:52;95569.53;;;10.20;59.51
72395;BME280;60384;48.152;11.614;2023-04-28T01:54:55;95572.69;;;10.22;59.28
72395;BME280;60384;48.152;11.614;2023-04-28T01:57:57;95573.97;;;10.25;58.82
72395;BME280;60384;48.152;11.614;2023-04-28T02:00:59;95572.03;;;10.25;59.53
72395;BME280;60384;48.152;11.614;2023-04-28T02:04:01;95572.53;;;10.27;59.29
72395;BME280;60384;48.152;11.614;2023-04-28T02:07:06;95569.06;;;10.27;58.50
72395;BME280;60384;48.152;11.614;2023-04-28T02:10:10;95571.75;;;10.27;59.40
72395;BME280;60384;48.152;11.614;2023-04-28T02:13:11;95575.69;;;10.29;58.84
72395;BME280;60384;48.152;11.614;2023-04-28T02:16:13;95574.88;;;10.29;59.35
72395;BME280;60384;48.152;11.614;2023-04-28T02:19:16;95580.22;;;10.29;59.08
72395;BME280;60384;48.152;11.614;2023-04-28T02:22:17;95581.81;;;10.30;59.26
72395;BME280;60384;48.152;11.614;2023-04-28T02:25:20;95584.00;;;10.28;58.97
72395;BME280;60384;48.152;11.614;2023-04-28T02:28:22;95586.66;;;10.28;58.93
72395;BME280;60384;48.152;11.614;2023-04-28T02:31:24;95582.91;;;10.29;59.55
72395;BME280;60384;48.152;11.614;2023-04-28T02:34:27;95579.44;;;10.28;59.58
72395;BME280;60384;48.152;11.614;2023-04-28T02:37:29;95579.44;;;10.28;58.85
72395;BME280;60384;48.152;11.614;2023-04-28T02:40:32;95566.88;;;10.29;58.81
72395;BME280;60384;48.152;11.614;2023-04-28T02:43:33;95560.75;;;10.28;58.63
72395;BME280;60384;48.152;11.614;2023-04-28T02:46:35;95554.16;;;10.26;59.02
72395;BME280;60384;48.152;11.614;2023-04-28T02:49:37;95556.69;;;10.22;58.95
72395;BME280;60384;48.152;11.614;2023-04-28T02:52:39;95568.31;;;10.18;59.72
72395;BME280;60384;48.152;11.614;2023-04-28T02:55:42;95564.84;;;10.17;59.75
72395;BME280;60384;48.152;11.614;2023-04-28T02:58:44;95549.63;;;10.18;59.84
72395;BME280;60384;48.152;11.614;2023-04-28T03:01:45;95532.81;;;10.17;59.72
72395;BME280;60384;48.152;11.614;2023-04-28T03:04:47;95535.78;;;10.16;59.80
72395;BME280;60384;48.152;11.614;2023-04-28T03:07:49;95543.28;;;10.14;59.57
72395;BME280;60384;48.152;11.614;2023-04-28T03:10:53;95528.25;;;10.09;59.92
72395;BME280;60384;48.152;11.614;2023-04-28T03:13:55;95537.34;;;10.08;59.28
72395;BME280;60384;48.152;11.614;2023-04-28T03:16:57;95529.19;;;10.05;59.53
72395;BME280;60384;48.152;11.614;2023-04-28T03:19:58;95526.03;;;10.03;59.36
72395;BME280;60384;48.152;11.614;2023-04-28T03:23:00;95536.72;;;10.03;59.85
72395;BME280;60384;48.152;11.614;2023-04-28T03:26:03;95540.97;;;10.04;59.42
72395;BME280;60384;48.152;11.614;2023-04-28T03:29:05;95536.88;;;10.06;59.62
72395;BME280;60384;48.152;11.614;2023-04-28T03:32:07;95542.69;;;10.08;59.60
72395;BME280;60384;48.152;11.614;2023-04-28T03:35:09;95541.13;;;10.07;59.55
72395;BME280;60384;48.152;11.614;2023-04-28T03:38:12;95538.47;;;10.07;59.16
72395;BME280;60384;48.152;11.614;2023-04-28T03:41:15;95527.00;;;10.07;59.44
72395;BME280;60384;48.152;11.614;2023-04-28T03:44:35;95520.09;;;10.06;59.94
72395;BME280;60384;48.152;11.614;2023-04-28T03:47:38;95526.22;;;10.06;60.16
72395;BME280;60384;48.152;11.614;2023-04-28T03:50:39;95528.09;;;10.06;59.40
72395;BME280;60384;48.152;11.614;2023-04-28T03:53:42;95529.97;;;10.05;59.46
72395;BME280;60384;48.152;11.614;2023-04-28T03:56:45;95530.28;;;10.04;59.29
72395;BME280;60384;48.152;11.614;2023-04-28T03:59:49;95539.06;;;10.04;59.67
72395;BME280;60384;48.152;11.614;2023-04-28T04:02:51;95539.06;;;10.04;59.78
72395;BME280;60384;48.152;11.614;2023-04-28T04:05:53;95532.66;;;10.05;59.87
72395;BME280;60384;48.152;11.614;2023-04-28T04:08:55;95535.00;;;10.07;59.90
72395;BME280;60384;48.152;11.614;2023-04-28T04:11:58;95529.03;;;10.10;59.92
72395;BME280;60384;48.152;11.614;2023-04-28T04:15:00;95527.63;;;10.12;59.47
72395;BME280;60384;48.152;11.614;2023-04-28T04:18:03;95530.28;;;10.12;59.48
72395;BME280;60384;48.152;11.614;2023-04-28T04:21:19;95539.53;;;10.15;59.73
72395;BME280;60384;48.152;11.614;2023-04-28T04:24:23;95543.78;;;10.16;59.92
72395;BME280;60384;48.152;11.614;2023-04-28T04:27:26;95549.13;;;10.16;59.97
72395;BME280;60384;48.152;11.614;2023-04-28T04:30:29;95534.19;;;10.15;59.81
72395;BME280;60384;48.152;11.614;2023-04-28T04:33:32;95520.41;;;10.13;59.15
72395;BME280;60384;48.152;11.614;2023-04-28T04:36:35;95513.00;;;10.10;59.74
72395;BME280;60384;48.152;11.614;2023-04-28T04:39:36;95523.25;;;10.08;60.21
72395;BME280;60384;48.152;11.614;2023-04-28T04:42:39;95530.63;;;10.02;60.23
72395;BME280;60384;48.152;11.614;2023-04-28T04:45:44;95531.38;;;10.03;60.21
72395;BME280;60384;48.152;11.614;2023-04-28T04:48:47;95530.94;;;10.01;59.58
72395;BME280;60384;48.152;11.614;2023-04-28T04:51:49;95524.94;;;10.04;60.39
72395;BME280;60384;48.152;11.614;2023-04-28T04:54:51;95519.78;;;10.07;59.80
72395;BME280;60384;48.152;11.614;2023-04-28T04:57:54;95521.94;;;10.14;59.60
72395;BME280;60384;48.152;11.614;2023-04-28T05:00:58;95519.94;;;10.19;59.66
72395;BME280;60384;48.152;11.614;2023-04-28T05:04:00;95526.06;;;10.20;60.05
72395;BME280;60384;48.152;11.614;2023-04-28T05:07:02;95533.59;;;10.18;60.17
72395;BME280;60384;48.152;11.614;2023-04-28T05:10:06;95544.28;;;10.18;59.98
72395;BME280;60384;48.152;11.614;2023-04-28T05:13:09;95543.19;;;10.19;59.72
72395;BME280;60384;48.152;11.614;2023-04-28T05:16:12;95558.88;;;10.20;59.86
72395;BME280;60384;48.152;11.614;2023-04-28T05:19:37;95554.31;;;10.21;59.64
72395;BME280;60384;48.152;11.614;2023-04-28T05:22:42;95548.97;;;10.21;60.40
72395;BME280;60384;48.152;11.614;2023-04-28T05:25:44;95551.19;;;10.19;60.37
72395;BME280;60384;48.152;11.614;2023-04-28T05:28:48;95555.28;;;10.16;60.30
72395;BME280;60384;48.152;11.614;2023-04-28T05:31:49;95553.06;;;10.18;60.29
72395;BME280;60384;48.152;11.614;2023-04-28T05:34:51;95563.41;;;10.20;59.64
72395;BME280;60384;48.152;11.614;2023-04-28T05:37:53;95556.69;;;10.22;60.10
72395;BME280;60384;48.152;11.614;2023-04-28T05:40:54;95557.16;;;10.24;60.18
72395;BME280;60384;48.152;11.614;2023-04-28T05:43:57;95548.81;;;10.26;59.73
72395;BME280;60384;48.152;11.614;2023-04-28T05:46:59;95554.16;;;10.26;59.82
72395;BME280;60384;48.152;11.614;2023-04-28T05:50:01;95556.50;;;10.27;59.92
72395;BME280;60384;48.152;11.614;2023-04-28T05:53:03;95550.84;;;10.29;60.31
72395;BME280;60384;48.152;11.614;2023-04-28T05:56:06;95542.53;;;10.30;59.99
72395;BME280;60384;48.152;11.614;2023-04-28T05:59:09;95542.19;;;10.32;60.19
72395;BME280;60384;48.152;11.614;2023-04-28T06:02:11;95543.78;;;10.33;60.30
72395;BME280;60384;48.152;11.614;2023-04-28T06:05:12;95551.78;;;10.33;60.32
72395;BME280;60384;48.152;11.614;2023-04-28T06:08:14;95557.13;;;10.33;59.85
72395;BME280;60384;48.152;11.614;2023-04-28T06:11:16;95570.94;;;10.35;60.67
72395;BME280;60384;48.152;11.614;2023-04-28T06:14:22;95559.19;;;10.36;60.30
72395;BME280;60384;48.152;11.614;2023-04-28T06:17:24;95552.72;;;10.37;59.85
72395;BME280;60384;48.152;11.614;2023-04-28T06:20:26;95541.41;;;10.40;59.51
72395;BME280;60384;48.152;11.614;2023-04-28T06:23:28;95549.13;;;10.42;60.18
72395;BME280;60384;48.152;11.614;2023-04-28T06:26:30;95549.72;;;10.47;60.31
72395;BME280;60384;48.152;11.614;2023-04-28T06:29:33;95549.56;;;10.52;59.78
72395;BME280;60384;48.152;11.614;2023-04-28T06:32:34;95545.13;;;10.56;60.10
72395;BME280;60384;48.152;11.614;2023-04-28T06:35:36;95534.28;;;10.61;60.61
72395;BME280;60384;48.152;11.614;2023-04-28T06:38:38;95531.91;;;10.68;60.42
72395;BME280;60384;48.152;11.614;2023-04-28T06:41:40;95537.19;;;10.77;60.11
72395;BME280;60384;48.152;11.614;2023-04-28T06:44:44;95529.78;;;10.83;60.10
72395;BME280;60384;48.152;11.614;2023-04-28T06:47:46;95521.16;;;10.86;60.26
72395;BME280;60384;48.152;11.614;2023-04-28T06:50:47;95523.75;;;10.94;60.32
72395;BME280;60384;48.152;11.614;2023-04-28T06:53:49;95516.78;;;11.10;59.48
72395;BME280;60384;48.152;11.614;2023-04-28T06:56:52;95513.34;;;11.31;59.57
72395;BME280;60384;48.152;11.614;2023-04-28T06:59:58;95506.47;;;11.50;59.36
72395;BME280;60384;48.152;11.614;2023-04-28T07:03:00;95512.78;;;11.67;58.89
72395;BME280;60384;48.152;11.614;2023-04-28T07:06:02;95504.28;;;11.73;59.50
72395;BME280;60384;48.152;11.614;2023-04-28T07:09:03;95498.25;;;11.76;59.56
72395;BME280;60384;48.152;11.614;2023-04-28T07:12:05;95502.19;;;11.79;59.92
72395;BME280;60384;48.152;11.614;2023-04-28T07:15:09;95499.31;;;11.84;59.97
72395;BME280;60384;48.152;11.614;2023-04-28T07:18:11;95504.88;;;11.91;59.97
72395;BME280;60384;48.152;11.614;2023-04-28T07:21:12;95503.78;;;11.92;59.55
72395;BME280;60384;48.152;11.614;2023-04-28T07:24:14;95496.34;;;11.97;60.14
72395;BME280;60384;48.152;11.614;2023-04-28T07:27:16;95493.44;;;12.02;59.70
72395;BME280;60384;48.152;11.614;2023-04-28T07:30:19;95493.59;;;12.06;59.64
72395;BME280;60384;48.152;11.614;2023-04-28T07:33:21;95494.22;;;12.03;59.61
72395;BME280;60384;48.152;11.614;2023-04-28T07:36:23;95493.81;;;12.01;60.35
72395;BME280;60384;48.152;11.614;2023-04-28T07:39:25;95503.72;;;12.00;60.36
72395;BME280;60384;48.152;11.614;2023-04-28T07:42:26;95503.72;;;12.00;60.24
72395;BME280;60384;48.152;11.614;2023-04-28T07:45:29;95493.13;;;12.04;60.79
72395;BME280;60384;48.152;11.614;2023-04-28T07:48:31;95495.91;;;12.08;60.04
72395;BME280;60384;48.152;11.614;2023-04-28T07:51:33;95502.19;;;12.12;59.91
72395;BME280;60384;48.152;11.614;2023-04-28T07:54:54;95505.97;;;12.11;60.53
72395;BME280;60384;48.152;11.614;2023-04-28T07:57:55;95510.44;;;12.07;60.63
72395;BME280;60384;48.152;11.614;2023-04-28T08:00:59;95513.56;;;12.09;60.13
72395;BME280;60384;48.152;11.614;2023-04-28T08:04:01;95512.56;;;12.13;60.37
72395;BME280;60384;48.152;11.614;2023-04-28T08:07:02;95505.31;;;12.14;60.54
72395;BME280;60384;48.152;11.614;2023-04-28T08:10:04;95511.91;;;12.16;60.41
72395;BME280;60384;48.152;11.614;2023-04-28T08:13:06;95501.19;;;12.16;60.47
72395;BME280;60384;48.152;11.614;2023-04-28T08:16:09;95507.81;;;12.19;60.39
72395;BME280;60384;48.152;11.614;2023-04-28T08:19:11;95503.34;;;12.23;60.37
72395;BME280;60384;48.152;11.614;2023-04-28T08:22:13;95505.50;;;12.29;60.35
72395;BME280;60384;48.152;11.614;2023-04-28T08:25:15;95508.59;;;12.31;60.17
72395;BME280;60384;48.152;11.614;2023-04-28T08:28:17;95497.09;;;12.31;60.14
72395;BME280;60384;48.152;11.614;2023-04-28T08:31:20;95493.84;;;12.25;61.06
72395;BME280;60384;48.152;11.614;2023-04-28T08:34:23;95496.41;;;12.22;60.98
72395;BME280;60384;48.152;11.614;2023-04-28T08:37:25;95490.50;;;12.16;60.73
72395;BME280;60384;48.152;11.614;2023-04-28T08:40:26;95490.25;;;12.09;60.95
72395;BME280;60384;48.152;11.614;2023-04-28T08:43:31;95490.25;;;12.09;61.00
72395;BME280;60384;48.152;11.614;2023-04-28T08:46:34;95486.34;;;12.07;61.05
72395;BME280;60384;48.152;11.614;2023-04-28T08:49:36;95481.78;;;12.07;60.92
72395;BME280;60384;48.152;11.614;2023-04-28T08:52:40;95484.88;;;12.09;60.74
72395;BME280;60384;48.152;11.614;2023-04-28T08:55:42;95473.19;;;12.14;61.29
72395;BME280;60384;48.152;11.614;2023-04-28T08:58:44;95468.75;;;12.18;60.50
72395;BME280;60384;48.152;11.614;2023-04-28T09:01:48;95469.97;;;12.20;61.03
72395;BME280;60384;48.152;11.614;2023-04-28T09:04:50;95469.63;;;12.22;61.31
72395;BME280;60384;48.152;11.614;2023-04-28T09:07:51;95465.19;;;12.26;61.13
72395;BME280;60384;48.152;11.614;2023-04-28T09:11:04;95468.44;;;12.31;60.72
72395;BME280;60384;48.152;11.614;2023-04-28T09:14:10;95463.00;;;12.40;60.92
72395;BME280;60384;48.152;11.614;2023-04-28T09:17:14;95463.56;;;12.46;60.86
72395;BME280;60384;48.152;11.614;2023-04-28T09:20:19;95461.31;;;12.48;60.48
72395;BME280;60384;48.152;11.614;2023-04-28T09:23:21;95454.41;;;12.47;60.91
72395;BME280;60384;48.152;11.614;2023-04-28T09:26:23;95455.94;;;12.48;60.48
72395;BME280;60384;48.152;11.614;2023-04-28T09:29:25;95454.41;;;12.47;61.04
72395;BME280;60384;48.152;11.614;2023-04-28T09:32:28;95453.94;;;12.45;61.17
72395;BME280;60384;48.152;11.614;2023-04-28T09:35:37;95453.06;;;12.40;61.44
72395;BME280;60384;48.152;11.614;2023-04-28T09:38:42;95461.41;;;12.39;61.37
72395;BME280;60384;48.152;11.614;2023-04-28T09:41:44;95456.38;;;12.37;61.32
72395;BME280;60384;48.152;11.614;2023-04-28T09:44:51;95459.75;;;12.34;60.72
72395;BME280;60384;48.152;11.614;2023-04-28T09:47:56;95454.25;;;12.31;61.52
72395;BME280;60384;48.152;11.614;2023-04-28T09:51:10;95442.66;;;12.27;61.58
72395;BME280;60384;48.152;11.614;2023-04-28T09:54:12;95447.69;;;12.28;61.77
72395;BME280;60384;48.152;11.614;2023-04-28T09:57:14;95437.41;;;12.30;61.00
72395;BME280;60384;48.152;11.614;2023-04-28T10:00:16;95438.97;;;12.31;61.35
72395;BME280;60384;48.152;11.614;2023-04-28T10:03:24;95434.28;;;12.28;61.23
72395;BME280;60384;48.152;11.614;2023-04-28T10:06:27;95434.94;;;12.25;61.06
72395;BME280;60384;48.152;11.614;2023-04-28T10:09:29;95436.06;;;12.24;61.04
72395;BME280;60384;48.152;11.614;2023-04-28T10:12:32;95430.34;;;12.26;61.11
72395;BME280;60384;48.152;11.614;2023-04-28T10:15:37;95440.84;;;12.31;61.34
72395;BME280;60384;48.152;11.614;2023-04-28T10:18:40;95446.22;;;12.31;61.36
72395;BME280;60384;48.152;11.614;2023-04-28T10:21:43;95441.22;;;12.29;61.67
72395;BME280;60384;48.152;11.614;2023-04-28T10:24:52;95433.81;;;12.26;61.30
72395;BME280;60384;48.152;11.614;2023-04-28T10:27:59;95435.94;;;12.21;61.51
72395;BME280;60384;48.152;11.614;2023-04-28T10:31:08;95426.78;;;12.22;61.25
72395;BME280;60384;48.152;11.614;2023-04-28T10:34:21;95431.03;;;12.23;61.68
72395;BME280;60384;48.152;11.614;2023-04-28T10:40:41;95426.91;;;12.25;61.40
72395;BME280;60384;48.152;11.614;2023-04-28T10:43:43;95428.03;;;12.24;61.38
72395;BME280;60384;48.152;11.614;2023-04-28T10:46:58;95420.66;;;12.21;61.22
72395;BME280;60384;48.152;11.614;2023-04-28T10:50:06;95424.44;;;12.20;61.91
72395;BME280;60384;48.152;11.614;2023-04-28T10:53:08;95423.00;;;12.23;61.73
72395;BME280;60384;48.152;11.614;2023-04-28T10:56:10;95414.97;;;12.23;61.69
72395;BME280;60384;48.152;11.614;2023-04-28T10:59:23;95422.22;;;12.22;61.86
72395;BME280;60384;48.152;11.614;2023-04-28T11:02:35;95419.44;;;12.19;61.74
72395;BME280;60384;48.152;11.614;2023-04-28T11:05:39;95430.91;;;12.19;61.76
72395;BME280;60384;48.152;11.614;2023-04-28T11:09:01;95430.72;;;12.24;61.38
72395;BME280;60384;48.152;11.614;2023-04-28T11:12:04;95431.03;;;12.23;61.80
72395;BME280;60384;48.152;11.614;2023-04-28T11:15:10;95435.28;;;12.24;62.09
72395;BME280;60384;48.152;11.614;2023-04-28T11:18:12;95436.19;;;12.28;62.01
72395;BME280;60384;48.152;11.614;2023-04-28T11:21:18;95437.41;;;12.30;61.83
72395;BME280;60384;48.152;11.614;2023-04-28T11:24:20;95435.72;;;12.26;61.58
72395;BME280;60384;48.152;11.614;2023-04-28T11:27:22;95435.28;;;12.24;61.78
72395;BME280;60384;48.152;11.614;2023-04-28T11:30:24;95444.44;;;12.23;62.09
72395;BME280;60384;48.152;11.614;2023-04-28T11:33:27;95442.88;;;12.22;62.32
72395;BME280;60384;48.152;11.614;2023-04-28T11:36:32;95437.81;;;12.20;62.13
72395;BME280;60384;48.152;11.614;2023-04-28T11:39:36;95435.28;;;12.24;62.23
72395;BME280;60384;48.152;11.614;2023-04-28T11:42:45;95427.94;;;12.33;61.42
72395;BME280;60384;48.152;11.614;2023-04-28T11:45:47;95436.53;;;12.38;61.66
72395;BME280;60384;48.152;11.614;2023-04-28T11:48:54;95437.88;;;12.45;61.40
72395;BME280;60384;48.152;11.614;2023-04-28T11:52:04;95429.38;;;12.55;61.31
72395;BME280;60384;48.152;11.614;2023-04-28T11:55:06;95429.28;;;12.63;61.57
72395;BME280;60384;48.152;11.614;2023-04-28T11:58:18;95424.91;;;12.59;61.60
72395;BME280;60384;48.152;11.614;2023-04-28T12:01:21;95426.72;;;12.55;61.91
72395;BME280;60384;48.152;11.614;2023-04-28T12:04:26;95425.50;;;12.52;61.94
72395;BME280;60384;48.152;11.614;2023-04-28T12:07:30;95433.88;;;12.51;62.03
72395;BME280;60384;48.152;11.614;2023-04-28T12:10:40;95429.94;;;12.48;62.17
72395;BME280;60384;48.152;11.614;2023-04-28T12:13:41;95439.00;;;12.56;62.03
72395;BME280;60384;48.152;11.614;2023-04-28T12:16:43;95437.56;;;12.58;61.79
72395;BME280;60384;48.152;11.614;2023-04-28T12:19:46;95416.09;;;12.70;61.80
72395;BME280;60384;48.152;11.614;2023-04-28T12:22:49;95422.00;;;12.88;61.51
72395;BME280;60384;48.152;11.614;2023-04-28T12:25:51;95423.56;;;13.01;61.22
72395;BME280;60384;48.152;11.614;2023-04-28T12:28:52;95433.84;;;13.23;60.92
72395;BME280;60384;48.152;11.614;2023-04-28T12:31:54;95442.66;;;13.24;61.00
72395;BME280;60384;48.152;11.614;2023-04-28T12:34:56;95437.84;;;13.30;61.09
72395;BME280;60384;48.152;11.614;2023-04-28T12:37:59;95446.78;;;13.34;61.44
72395;BME280;60384;48.152;11.614;2023-04-28T12:41:01;95440.50;;;13.42;61.36
72395;BME280;60384;48.152;11.614;2023-04-28T12:44:03;95435.72;;;13.35;61.42
72395;BME280;60384;48.152;11.614;2023-04-28T12:47:05;95448.47;;;13.38;61.67
72395;BME280;60384;48.152;11.614;2023-04-28T12:50:07;95448.22;;;13.43;61.87
72395;BME280;60384;48.152;11.614;2023-04-28T12:53:10;95442.84;;;13.43;61.81
72395;BME280;60384;48.152;11.614;2023-04-28T12:56:12;95453.59;;;13.43;61.86
72395;BME280;60384;48.152;11.614;2023-04-28T12:59:14;95447.78;;;13.41;61.88
72395;BME280;60384;48.152;11.614;2023-04-28T13:02:15;95446.13;;;13.37;62.05
72395;BME280;60384;48.152;11.614;2023-04-28T13:05:17;95442.06;;;13.43;62.00
72395;BME280;60384;48.152;11.614;2023-04-28T13:08:21;95437.59;;;13.47;62.25
72395;BME280;60384;48.152;11.614;2023-04-28T13:11:22;95423.44;;;13.62;61.66
72395;BME280;60384;48.152;11.614;2023-04-28T13:14:26;95426.13;;;13.62;61.82
72395;BME280;60384;48.152;11.614;2023-04-28T13:17:28;95420.81;;;13.78;61.80
72395;BME280;60384;48.152;11.614;2023-04-28T13:20:29;95425.78;;;13.91;61.54
72395;BME280;60384;48.152;11.614;2023-04-28T13:23:32;95416.94;;;13.91;61.83
72395;BME280;60384;48.152;11.614;2023-04-28T13:26:34;95410.31;;;14.00;61.92
72395;BME280;60384;48.152;11.614;2023-04-28T13:29:36;95410.38;;;14.04;61.91
72395;BME280;60384;48.152;11.614;2023-04-28T13:32:38;95411.50;;;14.03;62.14
72395;BME280;60384;48.152;11.614;2023-04-28T13:35:40;95416.25;;;13.94;62.29
72395;BME280;60384;48.152;11.614;2023-04-28T13:38:43;95411.69;;;13.94;62.65
72395;BME280;60384;48.152;11.614;2023-04-28T13:41:48;95407.97;;;14.15;61.97
72395;BME280;60384;48.152;11.614;2023-04-28T13:44:49;95402.34;;;14.35;61.45
72395;BME280;60384;48.152;11.614;2023-04-28T13:47:52;95406.66;;;14.52;61.43
72395;BME280;60384;48.152;11.614;2023-04-28T13:50:54;95402.13;;;14.56;61.59
72395;BME280;60384;48.152;11.614;2023-04-28T13:53:57;95389.63;;;14.79;61.60
72395;BME280;60384;48.152;11.614;2023-04-28T13:56:59;95391.03;;;14.93;61.24
72395;BME280;60384;48.152;11.614;2023-04-28T14:00:00;95393.13;;;14.99;61.16
72395;BME280;60384;48.152;11.614;2023-04-28T14:03:07;95391.41;;;14.91;61.78
72395;BME280;60384;48.152;11.614;2023-04-28T14:06:10;95383.03;;;15.12;61.67
72395;BME280;60384;48.152;11.614;2023-04-28T14:09:13;95392.56;;;15.09;61.42
72395;BME280;60384;48.152;11.614;2023-04-28T14:12:15;95380.03;;;14.98;61.64
72395;BME280;60384;48.152;11.614;2023-04-28T14:15:17;95388.47;;;15.15;62.09
72395;BME280;60384;48.152;11.614;2023-04-28T14:18:18;95380.91;;;15.40;61.45
72395;BME280;60384;48.152;11.614;2023-04-28T14:21:20;95387.28;;;15.32;61.81
72395;BME280;60384;48.152;11.614;2023-04-28T14:24:23;95381.84;;;15.28;62.34
72395;BME280;60384;48.152;11.614;2023-04-28T14:27:25;95378.34;;;15.28;62.54
72395;BME280;60384;48.152;11.614;2023-04-28T14:30:27;95382.47;;;15.22;62.35
72395;BME280;60384;48.152;11.614;2023-04-28T14:33:29;95378.94;;;15.18;62.51
72395;BME280;60384;48.152;11.614;2023-04-28T14:36:30;95380.31;;;15.12;62.84
72395;BME280;60384;48.152;11.614;2023-04-28T14:39:35;95370.28;;;15.09;63.17
72395;BME280;60384;48.152;11.614;2023-04-28T14:42:39;95371.75;;;15.06;63.03
72395;BME280;60384;48.152;11.614;2023-04-28T14:45:40;95372.47;;;15.03;63.12
72395;BME280;60384;48.152;11.614;2023-04-28T14:48:42;95376.47;;;14.94;63.06
72395;BME280;60384;48.152;11.614;2023-04-28T14:51:44;95372.94;;;14.89;63.59
72395;BME280;60384;48.152;11.614;2023-04-28T14:54:47;95366.59;;;14.98;63.55
72395;BME280;60384;48.152;11.614;2023-04-28T14:57:49;95369.50;;;15.08;62.91
72395;BME280;60384;48.152;11.614;2023-04-28T15:00:50;95359.88;;;15.07;62.77
72395;BME280;60384;48.152;11.614;2023-04-28T15:03:52;95368.50;;;14.97;63.46
72395;BME280;60384;48.152;11.614;2023-04-28T15:06:54;95374.41;;;14.87;63.18
72395;BME280;60384;48.152;11.614;2023-04-28T15:09:57;95375.78;;;14.81;63.49
72395;BME280;60384;48.152;11.614;2023-04-28T15:12:59;95373.47;;;14.79;63.67
72395;BME280;60384;48.152;11.614;2023-04-28T15:16:01;95371.91;;;14.78;63.54
72395;BME280;60384;48.152;11.614;2023-04-28T15:19:02;95371.41;;;14.73;63.62
72395;BME280;60384;48.152;11.614;2023-04-28T15:22:05;95382.78;;;14.66;63.64
72395;BME280;60384;48.152;11.614;2023-04-28T15:25:09;95388.69;;;14.56;64.12
72395;BME280;60384;48.152;11.614;2023-04-28T15:28:11;95384.69;;;14.50;63.76
72395;BME280;60384;48.152;11.614;2023-04-28T15:31:13;95384.34;;;14.52;64.34
72395;BME280;60384;48.152;11.614;2023-04-28T15:34:15;95376.56;;;14.46;64.40
72395;BME280;60384;48.152;11.614;2023-04-28T15:37:37;95375.59;;;14.39;64.37
72395;BME280;60384;48.152;11.614;2023-04-28T15:43:43;95379.13;;;14.27;64.77
72395;BME280;60384;48.152;11.614;2023-04-28T15:46:45;95385.53;;;14.23;64.81
72395;BME280;60384;48.152;11.614;2023-04-28T15:49:47;95382.66;;;14.16;64.80
72395;BME280;60384;48.152;11.614;2023-04-28T15:52:48;95372.19;;;14.11;64.69
72395;BME280;60384;48.152;11.614;2023-04-28T15:55:50;95380.25;;;14.11;64.32
72395;BME280;60384;48.152;11.614;2023-04-28T15:58:53;95384.84;;;14.10;64.35
72395;BME280;60384;48.152;11.614;2023-04-28T16:01:55;95380.91;;;14.07;64.47
72395;BME280;60384;48.152;11.614;2023-04-28T16:04:57;95375.13;;;14.05;64.31